sensor_id;sensor_type;location;lat;lon;timestamp;temperature;humidity
6333;DHT22;3199;49.102;8.856;2023-05-10T00:01:47;13.70;99.90
6333;DHT22;3199;49.102;8.856;2023-05-10T00:04:13;13.70;99.90
6333;DHT22;3199;49.102;8.856;2023-05-10T00:06:38;13.60;99.90
6333;DHT22;3199;49.102;8.856;2023-05-10T00:09:04;13.60;99.90
6333;DHT22;3199;49.102;8.856;2023-05-10T00:11:30;13.60;99.90
6333;DHT22;3199;49.102;8.856;2023-05-10T00:13:55;13.50;99.90
6333;DHT22;3199;49.102;8.856;2023-05-10T00:16:21;13.50;99.90
6333;DHT22;3199;49.102;8.856;2023-05-10T00:18:46;13.50;99.90
6333;DHT22;3199;49.102;8.856;2023-05-10T00:21:12;13.50;99.90
6333;DHT22;3199;49.102;8.856;2023-05-10T00:23:37;13.50;99.90
6333;DHT22;3199;49.102;8.856;2023-05-10T00:26:03;13.50;99.90
6333;DHT22;3199;49.102;8.856;2023-05-10T00:28:29;13.40;99.90
6333;DHT22;3199;49.102;8.856;2023-05-10T00:30:54;13.40;99.90
6333;DHT22;3199;49.102;8.856;2023-05-10T00:33:20;13.40;99.90
6333;DHT22;3199;49.102;8.856;2023-05-10T00:35:46;13.40;99.90
6333;DHT22;3199;49.102;8.856;2023-05-10T00:38:12;13.40;99.90
6333;DHT22;3199;49.102;8.856;2023-05-10T00:40:37;13.40;99.90
6333;DHT22;3199;49.102;8.856;2023-05-10T00:43:03;13.40;99.90
6333;DHT22;3199;49.102;8.856;2023-05-10T00:45:31;13.30;99.90
6333;DHT22;3199;49.102;8.856;2023-05-10T00:47:57;13.30;99.90
6333;DHT22;3199;49.102;8.856;2023-05-10T00:50:23;13.30;99.90
6333;DHT22;3199;49.102;8.856;2023-05-10T00:52:49;13.30;99.90
6333;DHT22;3199;49.102;8.856;2023-05-10T00:55:15;13.20;99.90
6333;DHT22;3199;49.102;8.856;2023-05-10T00:57:41;13.20;99.90
6333;DHT22;3199;49.102;8.856;2023-05-10T01:00:07;13.20;99.90
6333;DHT22;3199;49.102;8.856;2023-05-10T01:02:34;13.20;99.90
6333;DHT22;3199;49.102;8.856;2023-05-10T01:05:01;13.20;99.90
6333;DHT22;3199;49.102;8.856;2023-05-10T01:07:28;13.10;99.90
6333;DHT22;3199;49.102;8.856;2023-05-10T01:09:54;13.10;99.90
6333;DHT22;3199;49.102;8.856;2023-05-10T01:12:20;13.10;99.90
6333;DHT22;3199;49.102;8.856;2023-05-10T01:14:46;13.10;99.90
6333;DHT22;3199;49.102;8.856;2023-05-10T01:17:12;13.10;99.90
6333;DHT22;3199;49.102;8.856;2023-05-10T01:19:38;13.10;99.90
6333;DHT22;3199;49.102;8.856;2023-05-10T01:30:44;13.00;99.90
6333;DHT22;3199;49.102;8.856;2023-05-10T01:36:13;13.00;99.90
6333;DHT22;3199;49.102;8.856;2023-05-10T01:38:51;13.00;99.90
6333;DHT22;3199;49.102;8.856;2023-05-10T01:43:57;12.90;99.90
6333;DHT22;3199;49.102;8.856;2023-05-10T01:46:38;12.90;99.90
6333;DHT22;3199;49.102;8.856;2023-05-10T01:49:24;12.90;99.90
6333;DHT22;3199;49.102;8.856;2023-05-10T01:51:52;12.90;99.90
6333;DHT22;3199;49.102;8.856;2023-05-10T01:54:21;12.90;99.90
6333;DHT22;3199;49.102;8.856;2023-05-10T01:56:55;12.90;99.90
6333;DHT22;3199;49.102;8.856;2023-05-10T01:59:24;12.90;99.90
6333;DHT22;3199;49.102;8.856;2023-05-10T02:01:52;12.90;99.90
6333;DHT22;3199;49.102;8.856;2023-05-10T02:04:19;12.90;99.90
6333;DHT22;3199;49.102;8.856;2023-05-10T02:06:46;13.00;99.90
6333;DHT22;3199;49.102;8.856;2023-05-10T02:09:14;13.00;99.90
6333;DHT22;3199;49.102;8.856;2023-05-10T02:11:42;13.00;99.90
6333;DHT22;3199;49.102;8.856;2023-05-10T02:14:09;13.00;99.90
6333;DHT22;3199;49.102;8.856;2023-05-10T02:16:38;13.00;99.90
6333;DHT22;3199;49.102;8.856;2023-05-10T02:19:05;13.00;99.90
6333;DHT22;3199;49.102;8.856;2023-05-10T02:21:31;13.00;99.90
6333;DHT22;3199;49.102;8.856;2023-05-10T02:23:59;13.00;99.90
6333;DHT22;3199;49.102;8.856;2023-05-10T02:26:26;13.00;99.90
6333;DHT22;3199;49.102;8.856;2023-05-10T02:28:53;13.00;99.90
6333;DHT22;3199;49.102;8.856;2023-05-10T02:31:20;13.00;99.90
6333;DHT22;3199;49.102;8.856;2023-05-10T02:33:46;13.00;99.90
6333;DHT22;3199;49.102;8.856;2023-05-10T02:36:13;13.00;99.90
6333;DHT22;3199;49.102;8.856;2023-05-10T02:38:41;13.00;99.90
6333;DHT22;3199;49.102;8.856;2023-05-10T02:41:07;13.00;99.90
6333;DHT22;3199;49.102;8.856;2023-05-10T02:43:35;13.00;99.90
6333;DHT22;3199;49.102;8.856;2023-05-10T02:46:01;13.00;99.90
6333;DHT22;3199;49.102;8.856;2023-05-10T02:48:27;13.00;99.90
6333;DHT22;3199;49.102;8.856;2023-05-10T02:50:54;13.10;99.90
6333;DHT22;3199;49.102;8.856;2023-05-10T02:53:23;13.00;99.90
6333;DHT22;3199;49.102;8.856;2023-05-10T02:55:56;13.10;99.90
6333;DHT22;3199;49.102;8.856;2023-05-10T02:58:22;13.10;99.90
6333;DHT22;3199;49.102;8.856;2023-05-10T03:00:48;13.10;99.90
6333;DHT22;3199;49.102;8.856;2023-05-10T03:03:13;13.00;99.90
6333;DHT22;3199;49.102;8.856;2023-05-10T03:05:39;13.10;99.90
6333;DHT22;3199;49.102;8.856;2023-05-10T03:08:04;13.10;99.90
6333;DHT22;3199;49.102;8.856;2023-05-10T03:10:32;13.10;99.90
6333;DHT22;3199;49.102;8.856;2023-05-10T03:21:03;13.10;99.90
6333;DHT22;3199;49.102;8.856;2023-05-10T03:23:41;13.10;99.90
6333;DHT22;3199;49.102;8.856;2023-05-10T03:26:08;13.10;99.90
6333;DHT22;3199;49.102;8.856;2023-05-10T03:28:35;13.10;99.90
6333;DHT22;3199;49.102;8.856;2023-05-10T03:31:03;13.10;99.90
6333;DHT22;3199;49.102;8.856;2023-05-10T03:33:29;13.10;99.90
6333;DHT22;3199;49.102;8.856;2023-05-10T03:35:55;13.10;99.90
6333;DHT22;3199;49.102;8.856;2023-05-10T03:38:20;13.10;99.90
6333;DHT22;3199;49.102;8.856;2023-05-10T03:40:46;13.10;99.90
6333;DHT22;3199;49.102;8.856;2023-05-10T03:43:11;13.10;99.90
6333;DHT22;3199;49.102;8.856;2023-05-10T03:45:37;13.10;99.90
6333;DHT22;3199;49.102;8.856;2023-05-10T03:48:03;13.10;99.90
6333;DHT22;3199;49.102;8.856;2023-05-10T03:50:28;13.10;99.90
6333;DHT22;3199;49.102;8.856;2023-05-10T03:52:54;13.10;99.90
6333;DHT22;3199;49.102;8.856;2023-05-10T03:55:19;13.10;99.90
6333;DHT22;3199;49.102;8.856;2023-05-10T03:57:45;13.10;99.90
6333;DHT22;3199;49.102;8.856;2023-05-10T04:00:11;13.10;99.90
6333;DHT22;3199;49.102;8.856;2023-05-10T04:02:37;13.10;99.90
6333;DHT22;3199;49.102;8.856;2023-05-10T04:05:03;13.10;99.90
6333;DHT22;3199;49.102;8.856;2023-05-10T04:07:28;13.00;99.90
6333;DHT22;3199;49.102;8.856;2023-05-10T04:09:54;13.00;99.90
6333;DHT22;3199;49.102;8.856;2023-05-10T04:12:20;13.00;99.90
6333;DHT22;3199;49.102;8.856;2023-05-10T04:14:45;13.00;99.90
6333;DHT22;3199;49.102;8.856;2023-05-10T04:17:11;13.00;99.90
6333;DHT22;3199;49.102;8.856;2023-05-10T04:19:36;13.00;99.90
6333;DHT22;3199;49.102;8.856;2023-05-10T04:22:02;13.00;99.90
6333;DHT22;3199;49.102;8.856;2023-05-10T04:24:28;13.00;99.90
6333;DHT22;3199;49.102;8.856;2023-05-10T04:26:54;13.00;99.90
6333;DHT22;3199;49.102;8.856;2023-05-10T04:29:19;12.90;99.90
6333;DHT22;3199;49.102;8.856;2023-05-10T04:31:45;12.90;99.90
6333;DHT22;3199;49.102;8.856;2023-05-10T04:34:11;13.00;99.90
6333;DHT22;3199;49.102;8.856;2023-05-10T04:36:36;13.00;99.90
6333;DHT22;3199;49.102;8.856;2023-05-10T04:39:03;12.90;99.90
6333;DHT22;3199;49.102;8.856;2023-05-10T04:41:29;13.00;99.90
6333;DHT22;3199;49.102;8.856;2023-05-10T04:43:55;13.00;99.90
6333;DHT22;3199;49.102;8.856;2023-05-10T04:46:20;13.00;99.90
6333;DHT22;3199;49.102;8.856;2023-05-10T04:48:46;13.00;99.90
6333;DHT22;3199;49.102;8.856;2023-05-10T04:51:11;13.00;99.90
6333;DHT22;3199;49.102;8.856;2023-05-10T04:53:37;13.00;99.90
6333;DHT22;3199;49.102;8.856;2023-05-10T04:56:03;13.00;99.90
6333;DHT22;3199;49.102;8.856;2023-05-10T04:58:28;13.10;99.90
6333;DHT22;3199;49.102;8.856;2023-05-10T05:00:54;13.10;99.90
6333;DHT22;3199;49.102;8.856;2023-05-10T05:03:20;13.10;99.90
6333;DHT22;3199;49.102;8.856;2023-05-10T05:05:45;13.10;99.90
6333;DHT22;3199;49.102;8.856;2023-05-10T05:08:11;13.10;99.90
6333;DHT22;3199;49.102;8.856;2023-05-10T05:10:36;13.10;99.90
6333;DHT22;3199;49.102;8.856;2023-05-10T05:13:02;13.10;99.90
6333;DHT22;3199;49.102;8.856;2023-05-10T05:15:27;13.20;99.90
6333;DHT22;3199;49.102;8.856;2023-05-10T05:17:53;13.20;99.90
6333;DHT22;3199;49.102;8.856;2023-05-10T05:20:19;13.20;99.90
6333;DHT22;3199;49.102;8.856;2023-05-10T05:22:44;13.20;99.90
6333;DHT22;3199;49.102;8.856;2023-05-10T05:25:10;13.30;99.90
6333;DHT22;3199;49.102;8.856;2023-05-10T05:27:36;13.30;99.90
6333;DHT22;3199;49.102;8.856;2023-05-10T05:30:02;13.30;99.90
6333;DHT22;3199;49.102;8.856;2023-05-10T05:32:28;13.30;99.90
6333;DHT22;3199;49.102;8.856;2023-05-10T05:34:54;13.40;99.90
6333;DHT22;3199;49.102;8.856;2023-05-10T05:37:20;13.40;99.90
6333;DHT22;3199;49.102;8.856;2023-05-10T05:39:49;13.50;99.90
6333;DHT22;3199;49.102;8.856;2023-05-10T05:42:15;13.50;99.90
6333;DHT22;3199;49.102;8.856;2023-05-10T05:44:42;13.50;99.90
6333;DHT22;3199;49.102;8.856;2023-05-10T05:47:08;13.60;99.90
6333;DHT22;3199;49.102;8.856;2023-05-10T05:49:34;13.70;99.90
6333;DHT22;3199;49.102;8.856;2023-05-10T05:52:01;13.70;99.90
6333;DHT22;3199;49.102;8.856;2023-05-10T05:54:27;13.70;99.90
6333;DHT22;3199;49.102;8.856;2023-05-10T05:56:59;13.80;99.90
6333;DHT22;3199;49.102;8.856;2023-05-10T05:59:26;13.80;99.90
6333;DHT22;3199;49.102;8.856;2023-05-10T06:01:51;13.80;99.90
6333;DHT22;3199;49.102;8.856;2023-05-10T06:04:18;13.90;99.90
6333;DHT22;3199;49.102;8.856;2023-05-10T06:06:43;13.90;99.90
6333;DHT22;3199;49.102;8.856;2023-05-10T06:09:09;14.00;99.90
6333;DHT22;3199;49.102;8.856;2023-05-10T06:11:35;14.00;99.90
6333;DHT22;3199;49.102;8.856;2023-05-10T06:14:02;14.00;99.90
6333;DHT22;3199;49.102;8.856;2023-05-10T06:16:29;14.00;99.90
6333;DHT22;3199;49.102;8.856;2023-05-10T06:18:55;14.00;99.90
6333;DHT22;3199;49.102;8.856;2023-05-10T06:21:21;13.90;99.90
6333;DHT22;3199;49.102;8.856;2023-05-10T06:23:46;13.90;99.90
6333;DHT22;3199;49.102;8.856;2023-05-10T06:26:12;13.90;99.90
6333;DHT22;3199;49.102;8.856;2023-05-10T06:28:39;13.90;99.90
6333;DHT22;3199;49.102;8.856;2023-05-10T06:31:05;13.90;99.90
6333;DHT22;3199;49.102;8.856;2023-05-10T06:33:30;13.90;99.90
6333;DHT22;3199;49.102;8.856;2023-05-10T06:35:56;13.90;99.90
6333;DHT22;3199;49.102;8.856;2023-05-10T06:38:22;13.90;99.90
6333;DHT22;3199;49.102;8.856;2023-05-10T06:40:48;13.90;99.90
6333;DHT22;3199;49.102;8.856;2023-05-10T06:43:13;13.90;99.90
6333;DHT22;3199;49.102;8.856;2023-05-10T06:45:39;14.00;99.90
6333;DHT22;3199;49.102;8.856;2023-05-10T06:48:04;14.00;99.90
6333;DHT22;3199;49.102;8.856;2023-05-10T06:50:30;14.10;99.90
6333;DHT22;3199;49.102;8.856;2023-05-10T06:52:55;14.10;99.90
6333;DHT22;3199;49.102;8.856;2023-05-10T06:55:21;14.00;99.90
6333;DHT22;3199;49.102;8.856;2023-05-10T06:57:47;14.10;99.90
6333;DHT22;3199;49.102;8.856;2023-05-10T07:00:13;14.10;99.90
6333;DHT22;3199;49.102;8.856;2023-05-10T07:02:39;14.20;99.90
6333;DHT22;3199;49.102;8.856;2023-05-10T07:05:05;14.30;99.90
6333;DHT22;3199;49.102;8.856;2023-05-10T07:07:31;14.30;99.90
6333;DHT22;3199;49.102;8.856;2023-05-10T07:09:57;14.30;99.90
6333;DHT22;3199;49.102;8.856;2023-05-10T07:12:23;14.30;99.90
6333;DHT22;3199;49.102;8.856;2023-05-10T07:14:49;14.30;99.90
6333;DHT22;3199;49.102;8.856;2023-05-10T07:17:14;14.30;99.90
6333;DHT22;3199;49.102;8.856;2023-05-10T07:19:40;14.40;99.90
6333;DHT22;3199;49.102;8.856;2023-05-10T07:22:05;14.40;99.90
6333;DHT22;3199;49.102;8.856;2023-05-10T07:24:32;14.50;99.90
6333;DHT22;3199;49.102;8.856;2023-05-10T07:26:58;14.60;99.90
6333;DHT22;3199;49.102;8.856;2023-05-10T07:29:25;14.70;99.90
6333;DHT22;3199;49.102;8.856;2023-05-10T07:31:50;14.80;99.90
6333;DHT22;3199;49.102;8.856;2023-05-10T07:34:16;14.90;99.90
6333;DHT22;3199;49.102;8.856;2023-05-10T07:36:41;15.00;99.90
6333;DHT22;3199;49.102;8.856;2023-05-10T07:39:07;15.10;99.90
6333;DHT22;3199;49.102;8.856;2023-05-10T07:41:32;15.00;99.90
6333;DHT22;3199;49.102;8.856;2023-05-10T07:43:58;15.10;99.90
6333;DHT22;3199;49.102;8.856;2023-05-10T07:46:24;15.20;99.90
6333;DHT22;3199;49.102;8.856;2023-05-10T07:48:49;15.40;99.90
6333;DHT22;3199;49.102;8.856;2023-05-10T07:51:15;15.50;99.90
6333;DHT22;3199;49.102;8.856;2023-05-10T07:53:40;15.60;99.90
6333;DHT22;3199;49.102;8.856;2023-05-10T07:56:25;15.60;99.90
6333;DHT22;3199;49.102;8.856;2023-05-10T07:58:52;15.60;99.90
6333;DHT22;3199;49.102;8.856;2023-05-10T08:01:18;15.70;99.90
6333;DHT22;3199;49.102;8.856;2023-05-10T08:03:43;15.80;99.90
6333;DHT22;3199;49.102;8.856;2023-05-10T08:06:09;15.90;99.90
6333;DHT22;3199;49.102;8.856;2023-05-10T08:08:35;16.00;99.90
6333;DHT22;3199;49.102;8.856;2023-05-10T08:11:00;16.00;99.90
6333;DHT22;3199;49.102;8.856;2023-05-10T08:13:26;16.00;99.90
6333;DHT22;3199;49.102;8.856;2023-05-10T08:15:51;15.90;99.90
6333;DHT22;3199;49.102;8.856;2023-05-10T08:18:18;15.90;99.90
6333;DHT22;3199;49.102;8.856;2023-05-10T08:20:44;15.90;99.90
6333;DHT22;3199;49.102;8.856;2023-05-10T08:23:11;15.80;99.90
6333;DHT22;3199;49.102;8.856;2023-05-10T08:25:37;15.70;99.90
6333;DHT22;3199;49.102;8.856;2023-05-10T08:28:02;15.60;99.90
6333;DHT22;3199;49.102;8.856;2023-05-10T08:30:28;15.40;99.90
6333;DHT22;3199;49.102;8.856;2023-05-10T08:32:54;15.30;99.90
6333;DHT22;3199;49.102;8.856;2023-05-10T08:35:19;15.20;99.90
6333;DHT22;3199;49.102;8.856;2023-05-10T08:37:45;15.30;99.90
6333;DHT22;3199;49.102;8.856;2023-05-10T08:40:11;15.40;99.90
6333;DHT22;3199;49.102;8.856;2023-05-10T08:42:40;15.80;99.90
6333;DHT22;3199;49.102;8.856;2023-05-10T08:45:07;16.00;99.90
6333;DHT22;3199;49.102;8.856;2023-05-10T08:47:33;16.20;99.90
6333;DHT22;3199;49.102;8.856;2023-05-10T08:50:00;16.50;99.90
6333;DHT22;3199;49.102;8.856;2023-05-10T08:52:28;16.80;99.90
6333;DHT22;3199;49.102;8.856;2023-05-10T08:54:55;16.90;99.90
6333;DHT22;3199;49.102;8.856;2023-05-10T08:57:21;17.00;99.90
6333;DHT22;3199;49.102;8.856;2023-05-10T08:59:46;17.10;99.90
6333;DHT22;3199;49.102;8.856;2023-05-10T09:02:13;16.80;99.90
6333;DHT22;3199;49.102;8.856;2023-05-10T09:04:39;16.80;99.90
6333;DHT22;3199;49.102;8.856;2023-05-10T09:07:04;16.70;99.90
6333;DHT22;3199;49.102;8.856;2023-05-10T09:09:31;16.50;99.90
6333;DHT22;3199;49.102;8.856;2023-05-10T09:11:56;16.50;99.90
6333;DHT22;3199;49.102;8.856;2023-05-10T09:14:24;16.60;99.90
6333;DHT22;3199;49.102;8.856;2023-05-10T09:16:50;16.70;99.90
6333;DHT22;3199;49.102;8.856;2023-05-10T09:19:15;16.90;99.90
6333;DHT22;3199;49.102;8.856;2023-05-10T09:21:41;16.90;99.90
6333;DHT22;3199;49.102;8.856;2023-05-10T09:24:07;16.80;99.90
6333;DHT22;3199;49.102;8.856;2023-05-10T09:26:33;16.70;99.90
6333;DHT22;3199;49.102;8.856;2023-05-10T09:29:01;16.50;99.90
6333;DHT22;3199;49.102;8.856;2023-05-10T09:31:45;16.30;99.90
6333;DHT22;3199;49.102;8.856;2023-05-10T09:34:15;16.10;99.90
6333;DHT22;3199;49.102;8.856;2023-05-10T09:36:56;16.00;99.90
6333;DHT22;3199;49.102;8.856;2023-05-10T09:39:32;15.70;99.90
6333;DHT22;3199;49.102;8.856;2023-05-10T09:42:02;15.40;99.90
6333;DHT22;3199;49.102;8.856;2023-05-10T09:44:29;15.00;99.90
6333;DHT22;3199;49.102;8.856;2023-05-10T09:46:54;14.70;99.90
6333;DHT22;3199;49.102;8.856;2023-05-10T09:49:21;14.70;99.90
6333;DHT22;3199;49.102;8.856;2023-05-10T09:51:47;14.70;99.90
6333;DHT22;3199;49.102;8.856;2023-05-10T09:54:16;14.80;99.90
6333;DHT22;3199;49.102;8.856;2023-05-10T09:56:42;14.90;99.90
6333;DHT22;3199;49.102;8.856;2023-05-10T09:59:10;15.10;99.90
6333;DHT22;3199;49.102;8.856;2023-05-10T10:01:36;15.30;99.90
6333;DHT22;3199;49.102;8.856;2023-05-10T10:04:06;15.40;99.90
6333;DHT22;3199;49.102;8.856;2023-05-10T10:06:38;15.40;99.90
6333;DHT22;3199;49.102;8.856;2023-05-10T10:09:05;15.40;99.90
6333;DHT22;3199;49.102;8.856;2023-05-10T10:11:32;15.50;99.90
6333;DHT22;3199;49.102;8.856;2023-05-10T10:13:58;15.60;99.90
6333;DHT22;3199;49.102;8.856;2023-05-10T10:16:24;15.50;99.90
6333;DHT22;3199;49.102;8.856;2023-05-10T10:18:50;15.40;99.90
6333;DHT22;3199;49.102;8.856;2023-05-10T10:21:16;15.50;99.90
6333;DHT22;3199;49.102;8.856;2023-05-10T10:23:42;15.60;99.90
6333;DHT22;3199;49.102;8.856;2023-05-10T10:26:09;15.70;99.90
6333;DHT22;3199;49.102;8.856;2023-05-10T10:31:53;15.80;99.90
6333;DHT22;3199;49.102;8.856;2023-05-10T10:34:28;15.80;99.90
6333;DHT22;3199;49.102;8.856;2023-05-10T10:36:55;15.80;99.90
6333;DHT22;3199;49.102;8.856;2023-05-10T10:39:22;15.80;99.90
6333;DHT22;3199;49.102;8.856;2023-05-10T10:41:53;15.90;99.90
6333;DHT22;3199;49.102;8.856;2023-05-10T10:47:03;16.00;99.90
6333;DHT22;3199;49.102;8.856;2023-05-10T10:49:32;16.00;99.90
6333;DHT22;3199;49.102;8.856;2023-05-10T10:52:30;16.10;99.90
6333;DHT22;3199;49.102;8.856;2023-05-10T10:55:11;16.40;99.90
6333;DHT22;3199;49.102;8.856;2023-05-10T11:00:32;16.90;99.90
6333;DHT22;3199;49.102;8.856;2023-05-10T11:03:10;17.10;99.90
6333;DHT22;3199;49.102;8.856;2023-05-10T11:08:27;17.40;99.90
6333;DHT22;3199;49.102;8.856;2023-05-10T11:13:37;17.20;99.90
6333;DHT22;3199;49.102;8.856;2023-05-10T11:16:44;17.20;99.90
6333;DHT22;3199;49.102;8.856;2023-05-10T11:19:14;17.30;99.90
6333;DHT22;3199;49.102;8.856;2023-05-10T11:21:51;17.50;99.90
6333;DHT22;3199;49.102;8.856;2023-05-10T11:24:19;17.80;99.90
6333;DHT22;3199;49.102;8.856;2023-05-10T11:26:45;18.00;99.90
6333;DHT22;3199;49.102;8.856;2023-05-10T11:29:13;17.90;99.90
6333;DHT22;3199;49.102;8.856;2023-05-10T11:31:46;18.00;99.90
6333;DHT22;3199;49.102;8.856;2023-05-10T11:34:25;18.00;99.90
6333;DHT22;3199;49.102;8.856;2023-05-10T11:36:52;18.10;99.90
6333;DHT22;3199;49.102;8.856;2023-05-10T11:39:19;18.20;99.90
6333;DHT22;3199;49.102;8.856;2023-05-10T11:41:48;18.40;99.90
6333;DHT22;3199;49.102;8.856;2023-05-10T11:44:14;18.50;99.90
6333;DHT22;3199;49.102;8.856;2023-05-10T11:46:40;18.40;99.90
6333;DHT22;3199;49.102;8.856;2023-05-10T11:49:07;18.60;99.90
6333;DHT22;3199;49.102;8.856;2023-05-10T11:51:36;18.60;99.90
6333;DHT22;3199;49.102;8.856;2023-05-10T11:54:06;18.40;99.90
6333;DHT22;3199;49.102;8.856;2023-05-10T11:56:32;18.20;99.90
6333;DHT22;3199;49.102;8.856;2023-05-10T11:58:58;18.20;99.90
6333;DHT22;3199;49.102;8.856;2023-05-10T12:01:26;18.10;99.90
6333;DHT22;3199;49.102;8.856;2023-05-10T12:03:53;18.10;99.90
6333;DHT22;3199;49.102;8.856;2023-05-10T12:06:20;18.10;99.90
6333;DHT22;3199;49.102;8.856;2023-05-10T12:08:47;18.00;99.90
6333;DHT22;3199;49.102;8.856;2023-05-10T12:11:14;17.90;99.90
6333;DHT22;3199;49.102;8.856;2023-05-10T12:13:42;18.00;99.90
6333;DHT22;3199;49.102;8.856;2023-05-10T12:16:14;18.10;99.90
6333;DHT22;3199;49.102;8.856;2023-05-10T12:18:40;18.10;99.90
6333;DHT22;3199;49.102;8.856;2023-05-10T12:21:09;18.10;99.90
6333;DHT22;3199;49.102;8.856;2023-05-10T12:23:35;18.10;99.90
6333;DHT22;3199;49.102;8.856;2023-05-10T12:26:02;18.00;99.90
6333;DHT22;3199;49.102;8.856;2023-05-10T12:28:30;18.10;99.90
6333;DHT22;3199;49.102;8.856;2023-05-10T12:30:57;18.10;99.90
6333;DHT22;3199;49.102;8.856;2023-05-10T12:33:23;18.30;99.90
6333;DHT22;3199;49.102;8.856;2023-05-10T12:35:52;18.50;99.90
6333;DHT22;3199;49.102;8.856;2023-05-10T12:38:43;18.60;99.90
6333;DHT22;3199;49.102;8.856;2023-05-10T12:41:11;18.90;99.90
6333;DHT22;3199;49.102;8.856;2023-05-10T12:43:37;18.90;99.90
6333;DHT22;3199;49.102;8.856;2023-05-10T12:46:12;18.80;99.90
6333;DHT22;3199;49.102;8.856;2023-05-10T12:48:39;18.60;99.90
6333;DHT22;3199;49.102;8.856;2023-05-10T12:51:05;18.70;99.90
6333;DHT22;3199;49.102;8.856;2023-05-10T12:53:34;18.60;99.60
6333;DHT22;3199;49.102;8.856;2023-05-10T12:56:00;18.70;99.70
6333;DHT22;3199;49.102;8.856;2023-05-10T12:58:25;18.70;98.80
6333;DHT22;3199;49.102;8.856;2023-05-10T13:00:51;18.50;99.00
6333;DHT22;3199;49.102;8.856;2023-05-10T13:03:17;18.50;99.00
6333;DHT22;3199;49.102;8.856;2023-05-10T13:05:43;18.40;99.00
6333;DHT22;3199;49.102;8.856;2023-05-10T13:08:08;18.50;98.00
6333;DHT22;3199;49.102;8.856;2023-05-10T13:10:34;18.60;98.50
6333;DHT22;3199;49.102;8.856;2023-05-10T13:12:59;18.50;96.70
6333;DHT22;3199;49.102;8.856;2023-05-10T13:15:25;18.50;96.60
6333;DHT22;3199;49.102;8.856;2023-05-10T13:17:52;18.60;97.20
6333;DHT22;3199;49.102;8.856;2023-05-10T13:20:18;18.80;96.40
6333;DHT22;3199;49.102;8.856;2023-05-10T13:22:44;19.10;96.20
6333;DHT22;3199;49.102;8.856;2023-05-10T13:25:10;19.30;95.80
6333;DHT22;3199;49.102;8.856;2023-05-10T13:27:36;19.10;94.10
6333;DHT22;3199;49.102;8.856;2023-05-10T13:30:02;18.80;93.80
6333;DHT22;3199;49.102;8.856;2023-05-10T13:32:28;18.60;93.80
6333;DHT22;3199;49.102;8.856;2023-05-10T13:34:54;18.60;94.40
6333;DHT22;3199;49.102;8.856;2023-05-10T13:37:20;18.60;94.30
6333;DHT22;3199;49.102;8.856;2023-05-10T13:39:46;18.70;94.20
6333;DHT22;3199;49.102;8.856;2023-05-10T13:42:12;18.80;94.20
6333;DHT22;3199;49.102;8.856;2023-05-10T13:44:37;18.90;95.00
6333;DHT22;3199;49.102;8.856;2023-05-10T13:47:04;18.90;93.40
6333;DHT22;3199;49.102;8.856;2023-05-10T13:49:29;18.70;93.10
6333;DHT22;3199;49.102;8.856;2023-05-10T13:51:55;18.70;94.00
6333;DHT22;3199;49.102;8.856;2023-05-10T13:54:20;18.70;93.30
6333;DHT22;3199;49.102;8.856;2023-05-10T13:56:47;18.80;93.80
6333;DHT22;3199;49.102;8.856;2023-05-10T13:59:14;19.00;94.20
6333;DHT22;3199;49.102;8.856;2023-05-10T14:01:40;19.00;94.20
6333;DHT22;3199;49.102;8.856;2023-05-10T14:04:06;19.20;93.30
6333;DHT22;3199;49.102;8.856;2023-05-10T14:06:33;19.10;93.00
6333;DHT22;3199;49.102;8.856;2023-05-10T14:08:59;19.10;93.70
6333;DHT22;3199;49.102;8.856;2023-05-10T14:11:24;19.20;92.50
6333;DHT22;3199;49.102;8.856;2023-05-10T14:13:50;19.30;91.50
6333;DHT22;3199;49.102;8.856;2023-05-10T14:16:15;19.40;92.50
6333;DHT22;3199;49.102;8.856;2023-05-10T14:18:41;19.30;92.30
6333;DHT22;3199;49.102;8.856;2023-05-10T14:21:07;19.30;92.80
6333;DHT22;3199;49.102;8.856;2023-05-10T14:23:32;19.30;92.70
6333;DHT22;3199;49.102;8.856;2023-05-10T14:25:58;19.30;92.80
6333;DHT22;3199;49.102;8.856;2023-05-10T14:28:23;19.20;91.70
6333;DHT22;3199;49.102;8.856;2023-05-10T14:30:50;19.20;91.30
6333;DHT22;3199;49.102;8.856;2023-05-10T14:33:16;18.90;89.60
6333;DHT22;3199;49.102;8.856;2023-05-10T14:35:42;18.90;90.50
6333;DHT22;3199;49.102;8.856;2023-05-10T14:38:08;18.90;90.70
6333;DHT22;3199;49.102;8.856;2023-05-10T14:40:33;18.90;91.00
6333;DHT22;3199;49.102;8.856;2023-05-10T14:42:59;18.90;91.00
6333;DHT22;3199;49.102;8.856;2023-05-10T14:45:26;18.90;91.30
6333;DHT22;3199;49.102;8.856;2023-05-10T14:47:51;18.90;91.10
6333;DHT22;3199;49.102;8.856;2023-05-10T14:50:17;18.90;90.40
6333;DHT22;3199;49.102;8.856;2023-05-10T14:52:43;19.00;91.30
6333;DHT22;3199;49.102;8.856;2023-05-10T14:55:10;18.80;89.20
6333;DHT22;3199;49.102;8.856;2023-05-10T14:57:35;18.60;90.30
6333;DHT22;3199;49.102;8.856;2023-05-10T15:00:02;18.60;91.40
6333;DHT22;3199;49.102;8.856;2023-05-10T15:02:27;18.60;91.30
6333;DHT22;3199;49.102;8.856;2023-05-10T15:04:53;18.60;91.10
6333;DHT22;3199;49.102;8.856;2023-05-10T15:07:18;18.60;91.40
6333;DHT22;3199;49.102;8.856;2023-05-10T15:09:44;18.70;91.40
6333;DHT22;3199;49.102;8.856;2023-05-10T15:12:10;18.70;91.40
6333;DHT22;3199;49.102;8.856;2023-05-10T15:14:36;18.90;91.40
6333;DHT22;3199;49.102;8.856;2023-05-10T15:17:02;18.80;91.10
6333;DHT22;3199;49.102;8.856;2023-05-10T15:19:27;18.80;91.50
6333;DHT22;3199;49.102;8.856;2023-05-10T15:21:54;18.70;90.40
6333;DHT22;3199;49.102;8.856;2023-05-10T15:24:21;18.60;90.80
6333;DHT22;3199;49.102;8.856;2023-05-10T15:26:46;18.70;91.20
6333;DHT22;3199;49.102;8.856;2023-05-10T15:29:12;18.70;91.20
6333;DHT22;3199;49.102;8.856;2023-05-10T15:31:45;18.60;90.60
6333;DHT22;3199;49.102;8.856;2023-05-10T15:34:10;18.60;91.90
6333;DHT22;3199;49.102;8.856;2023-05-10T15:36:36;18.60;90.70
6333;DHT22;3199;49.102;8.856;2023-05-10T15:39:02;18.60;91.50
6333;DHT22;3199;49.102;8.856;2023-05-10T15:41:28;18.50;91.40
6333;DHT22;3199;49.102;8.856;2023-05-10T15:43:54;18.50;91.40
6333;DHT22;3199;49.102;8.856;2023-05-10T15:46:19;18.40;91.70
6333;DHT22;3199;49.102;8.856;2023-05-10T15:48:45;18.30;91.30
6333;DHT22;3199;49.102;8.856;2023-05-10T15:51:10;18.10;91.40
6333;DHT22;3199;49.102;8.856;2023-05-10T15:53:36;18.10;91.10
6333;DHT22;3199;49.102;8.856;2023-05-10T15:56:02;18.10;91.30
6333;DHT22;3199;49.102;8.856;2023-05-10T15:58:28;18.10;91.20
6333;DHT22;3199;49.102;8.856;2023-05-10T16:00:53;18.00;91.10
6333;DHT22;3199;49.102;8.856;2023-05-10T16:03:19;18.00;91.30
6333;DHT22;3199;49.102;8.856;2023-05-10T16:05:44;18.10;91.50
6333;DHT22;3199;49.102;8.856;2023-05-10T16:08:10;18.10;91.60
6333;DHT22;3199;49.102;8.856;2023-05-10T16:10:36;18.10;91.50
6333;DHT22;3199;49.102;8.856;2023-05-10T16:13:02;18.10;92.20
6333;DHT22;3199;49.102;8.856;2023-05-10T16:15:28;18.10;91.50
6333;DHT22;3199;49.102;8.856;2023-05-10T16:17:53;18.10;91.80
6333;DHT22;3199;49.102;8.856;2023-05-10T16:20:19;18.10;91.90
6333;DHT22;3199;49.102;8.856;2023-05-10T16:22:45;18.10;92.10
6333;DHT22;3199;49.102;8.856;2023-05-10T16:25:10;18.10;92.30
6333;DHT22;3199;49.102;8.856;2023-05-10T16:27:36;18.10;92.00
6333;DHT22;3199;49.102;8.856;2023-05-10T16:30:02;18.00;92.80
6333;DHT22;3199;49.102;8.856;2023-05-10T16:32:28;18.10;93.50
6333;DHT22;3199;49.102;8.856;2023-05-10T16:34:53;18.10;92.90
6333;DHT22;3199;49.102;8.856;2023-05-10T16:37:19;18.00;92.50